Time;durP1;ratioP1;P1;durP2;ratioP2;P2;SDS_P1;SDS_P2;PMS_P1;PMS_P2;Temp;Humidity;BMP_temperature;BMP_pressure;BME280_temperature;BME280_humidity;BME280_pressure;Samples;Min_cycle;Max_cycle;Signal;HPM_P1;HPM_P2
2020/12/17 00:00:45;;;;;;;15.35;12.35;;;9.30;99.90;;;;;;4886543;29;20123;-83
2020/12/17 00:03:10;;;;;;;15.68;12.93;;;9.30;99.90;;;;;;4882966;29;20131;-81
2020/12/17 00:05:39;;;;;;;13.13;11.45;;;9.30;99.90;;;;;;4899051;29;20119;-82
2020/12/17 00:08:06;;;;;;;14.85;11.98;;;9.30;99.90;;;;;;4886334;29;20044;-82
2020/12/17 00:10:32;;;;;;;13.65;11.55;;;9.30;99.90;;;;;;4898016;29;20091;-82
2020/12/17 00:12:57;;;;;;;17.40;12.65;;;9.30;99.90;;;;;;4917289;29;20464;-82
2020/12/17 00:15:23;;;;;;;14.35;12.30;;;9.30;99.90;;;;;;4918705;29;20152;-81
2020/12/17 00:17:52;;;;;;;15.73;12.98;;;9.30;99.90;;;;;;4883724;29;20388;-81
2020/12/17 00:20:20;;;;;;;16.67;12.45;;;9.30;99.90;;;;;;4919063;29;20039;-82
2020/12/17 00:22:46;;;;;;;16.60;13.25;;;9.30;99.90;;;;;;4899048;29;20079;-82
2020/12/17 00:25:13;;;;;;;17.30;12.93;;;9.30;99.90;;;;;;4897947;29;20040;-82
2020/12/17 00:27:40;;;;;;;19.38;12.63;;;9.30;99.90;;;;;;4898065;29;20603;-82
2020/12/17 00:30:11;;;;;;;18.15;13.80;;;9.30;99.90;;;;;;4918683;29;20032;-82
2020/12/17 00:32:37;;;;;;;17.77;14.57;;;9.30;99.90;;;;;;4898294;29;20024;-82
2020/12/17 00:35:04;;;;;;;17.25;14.43;;;9.20;99.90;;;;;;4900560;29;20040;-80
2020/12/17 00:37:31;;;;;;;17.52;14.13;;;9.20;99.90;;;;;;4898291;29;20061;-81
2020/12/17 00:39:57;;;;;;;17.30;14.88;;;9.30;99.90;;;;;;4899829;29;20363;-82
2020/12/17 00:42:23;;;;;;;19.50;13.98;;;9.20;99.90;;;;;;4917574;29;20056;-81
2020/12/17 00:44:49;;;;;;;20.08;13.63;;;9.20;99.90;;;;;;4883124;29;20067;-82
2020/12/17 00:47:15;;;;;;;18.27;14.13;;;9.20;99.90;;;;;;4897316;29;20036;-82
2020/12/17 00:49:41;;;;;;;19.15;13.80;;;9.20;99.90;;;;;;4897714;29;20032;-81
2020/12/17 00:52:06;;;;;;;20.33;14.40;;;9.20;99.90;;;;;;4897674;29;20028;-84
2020/12/17 00:54:32;;;;;;;19.30;15.70;;;9.20;99.90;;;;;;4913258;29;20038;-82
2020/12/17 00:56:58;;;;;;;20.05;15.20;;;9.20;99.90;;;;;;4917893;29;20067;-82
2020/12/17 00:59:23;;;;;;;21.33;15.57;;;9.20;99.90;;;;;;4888268;29;20059;-81
2020/12/17 01:01:49;;;;;;;20.88;16.70;;;9.20;99.90;;;;;;4883297;29;20119;-83
2020/12/17 01:04:15;;;;;;;23.10;16.70;;;9.20;99.90;;;;;;4898077;29;20159;-83
2020/12/17 01:06:41;;;;;;;20.10;15.48;;;9.20;99.90;;;;;;4897897;29;20112;-82
2020/12/17 01:09:06;;;;;;;21.58;15.82;;;9.30;99.90;;;;;;4882420;29;20032;-82
2020/12/17 01:11:33;;;;;;;20.48;16.85;;;9.20;99.90;;;;;;4882995;29;20028;-82
2020/12/17 01:13:59;;;;;;;21.73;16.95;;;9.20;99.90;;;;;;4917385;29;20504;-81
2020/12/17 01:16:24;;;;;;;21.20;16.75;;;9.20;99.90;;;;;;4918291;29;20028;-82
2020/12/17 01:18:50;;;;;;;19.33;15.77;;;9.20;99.90;;;;;;4899639;29;20039;-82
2020/12/17 01:21:17;;;;;;;20.13;15.73;;;9.20;99.90;;;;;;4897373;29;20043;-82
2020/12/17 01:23:43;;;;;;;21.63;16.85;;;9.20;99.90;;;;;;4897082;29;20044;-82
2020/12/17 01:26:09;;;;;;;23.45;17.65;;;9.20;99.90;;;;;;4897006;29;20064;-82
2020/12/17 01:28:40;;;;;;;20.77;16.27;;;9.20;99.90;;;;;;4881527;29;20032;-82
2020/12/17 01:31:09;;;;;;;21.90;16.50;;;9.20;99.90;;;;;;4900552;29;20439;-85
2020/12/17 01:33:35;;;;;;;26.52;19.77;;;9.20;99.90;;;;;;4896959;29;20049;-81
2020/12/17 01:36:04;;;;;;;22.55;18.58;;;9.20;99.90;;;;;;4916554;29;20027;-82
2020/12/17 01:38:30;;;;;;;26.40;17.67;;;9.20;99.90;;;;;;4897125;29;20127;-82
2020/12/17 01:40:57;;;;;;;28.95;19.20;;;9.20;99.90;;;;;;4899890;29;20060;-82
2020/12/17 01:43:23;;;;;;;22.45;17.48;;;9.20;99.90;;;;;;4899274;29;20578;-82
2020/12/17 01:45:49;;;;;;;21.33;16.23;;;9.20;99.90;;;;;;4916304;29;20092;-81
2020/12/17 01:48:18;;;;;;;23.67;17.92;;;9.20;99.90;;;;;;4904936;29;20033;-84
2020/12/17 01:50:45;;;;;;;22.75;16.77;;;9.20;99.90;;;;;;4920681;29;20016;-82
2020/12/17 01:53:11;;;;;;;24.98;19.52;;;9.30;99.90;;;;;;4904902;29;20033;-86
2020/12/17 01:55:38;;;;;;;20.27;15.88;;;9.20;99.90;;;;;;4920152;29;20036;-80
2020/12/17 01:58:05;;;;;;;24.80;17.85;;;9.20;99.90;;;;;;4920873;29;20016;-83
2020/12/17 02:00:34;;;;;;;24.08;18.33;;;9.20;99.90;;;;;;4917272;29;20052;-81
2020/12/17 02:03:01;;;;;;;29.27;20.58;;;9.20;99.90;;;;;;4938615;29;20048;-82
2020/12/17 02:05:28;;;;;;;22.90;16.85;;;9.10;99.90;;;;;;4920500;29;20032;-82
2020/12/17 02:07:56;;;;;;;28.42;20.25;;;9.30;99.90;;;;;;4936952;29;20051;-81
2020/12/17 02:10:22;;;;;;;23.77;18.60;;;9.20;99.90;;;;;;4929332;29;20036;-82
2020/12/17 02:12:49;;;;;;;29.48;22.02;;;9.10;99.90;;;;;;4909969;29;20096;-82
2020/12/17 02:15:16;;;;;;;25.60;20.55;;;9.10;99.90;;;;;;4938009;29;20036;-85
2020/12/17 02:17:42;;;;;;;30.42;22.55;;;9.10;99.90;;;;;;4920394;29;20061;-82
2020/12/17 02:20:08;;;;;;;29.13;21.02;;;9.10;99.90;;;;;;4920656;29;20057;-81
2020/12/17 02:22:34;;;;;;;32.25;23.83;;;9.10;99.90;;;;;;4935282;29;20031;-81
2020/12/17 02:25:02;;;;;;;24.92;19.55;;;9.10;99.90;;;;;;4918820;29;20029;-81
2020/12/17 02:27:27;;;;;;;30.65;22.80;;;9.10;99.90;;;;;;4904390;29;20049;-82
2020/12/17 02:29:53;;;;;;;35.50;23.58;;;9.10;99.90;;;;;;4922434;29;20029;-81
2020/12/17 02:32:19;;;;;;;37.47;25.10;;;9.20;99.90;;;;;;4920598;29;20036;-84
2020/12/17 02:34:45;;;;;;;33.67;24.08;;;9.10;99.90;;;;;;4921366;29;20032;-81
2020/12/17 02:37:10;;;;;;;32.25;23.30;;;9.10;99.90;;;;;;4919708;29;20033;-80
2020/12/17 02:39:36;;;;;;;30.73;22.33;;;9.10;99.90;;;;;;4894783;29;20041;-82
2020/12/17 02:42:03;;;;;;;35.05;24.60;;;9.10;99.90;;;;;;4912311;29;20040;-83
2020/12/17 02:44:29;;;;;;;33.83;24.42;;;9.10;99.90;;;;;;4909572;29;20047;-82
2020/12/17 02:46:54;;;;;;;39.03;26.63;;;9.10;99.90;;;;;;4894320;29;20040;-82
2020/12/17 02:49:20;;;;;;;28.77;19.85;;;9.10;99.90;;;;;;4884341;29;20029;-82
2020/12/17 02:51:45;;;;;;;31.92;22.90;;;9.10;99.90;;;;;;4884641;29;20383;-81
2020/12/17 02:54:11;;;;;;;33.08;22.92;;;9.20;99.90;;;;;;4920150;29;20399;-82
2020/12/17 02:56:37;;;;;;;27.02;21.45;;;9.10;99.90;;;;;;4920353;29;20107;-81
2020/12/17 02:59:03;;;;;;;26.10;19.67;;;9.20;99.90;;;;;;4899024;29;20068;-83
2020/12/17 03:01:29;;;;;;;39.00;28.35;;;9.20;99.90;;;;;;4900819;29;20487;-81
2020/12/17 03:03:56;;;;;;;40.60;29.23;;;9.30;99.90;;;;;;4867531;29;20048;-82
2020/12/17 03:06:21;;;;;;;31.38;23.45;;;9.20;99.90;;;;;;4878415;29;20065;-82
2020/12/17 03:08:47;;;;;;;38.10;25.85;;;9.10;99.90;;;;;;4899558;29;20065;-81
2020/12/17 03:11:13;;;;;;;33.25;25.67;;;9.10;99.90;;;;;;4900592;29;20032;-82
2020/12/17 03:13:38;;;;;;;34.85;24.70;;;9.10;99.90;;;;;;4880349;29;20040;-81
2020/12/17 03:16:04;;;;;;;35.33;27.05;;;9.10;99.90;;;;;;4900254;29;20028;-82
2020/12/17 03:18:30;;;;;;;36.35;26.20;;;9.10;99.90;;;;;;4894372;29;20028;-81
2020/12/17 03:20:55;;;;;;;33.67;25.88;;;9.10;99.90;;;;;;4883664;29;20491;-82
2020/12/17 03:23:21;;;;;;;39.13;25.77;;;9.10;99.90;;;;;;4861980;29;20048;-82
2020/12/17 03:25:47;;;;;;;35.25;27.08;;;9.20;99.90;;;;;;4900326;29;20028;-81
2020/12/17 03:28:13;;;;;;;37.50;29.05;;;9.10;99.90;;;;;;4892020;29;20033;-81
2020/12/17 03:30:38;;;;;;;51.40;35.70;;;9.10;99.90;;;;;;4898685;29;20399;-81
2020/12/17 03:33:04;;;;;;;33.90;26.63;;;9.10;99.90;;;;;;4900400;29;20033;-82
2020/12/17 03:35:30;;;;;;;42.90;32.28;;;9.10;99.90;;;;;;4900178;29;20084;-82
2020/12/17 03:37:58;;;;;;;38.50;29.27;;;9.10;99.90;;;;;;4897641;29;20092;-82
2020/12/17 03:40:28;;;;;;;33.88;26.40;;;9.30;99.90;;;;;;4893400;29;20033;-82
2020/12/17 03:42:54;;;;;;;36.30;27.10;;;9.20;99.90;;;;;;4900079;29;20479;-82
2020/12/17 03:45:21;;;;;;;27.15;22.15;;;9.20;99.90;;;;;;4892397;29;20491;-81
2020/12/17 03:47:46;;;;;;;35.30;25.58;;;9.20;99.90;;;;;;4883444;29;20032;-81
2020/12/17 03:50:13;;;;;;;31.75;23.58;;;9.20;99.90;;;;;;4891654;29;20558;-81
2020/12/17 03:52:38;;;;;;;36.30;27.17;;;9.30;99.90;;;;;;4898531;29;20479;-81
2020/12/17 03:55:05;;;;;;;28.48;21.23;;;9.40;99.90;;;;;;4900095;29;20035;-81
2020/12/17 03:57:31;;;;;;;28.45;23.63;;;9.30;99.90;;;;;;4899704;29;20029;-81
2020/12/17 03:59:57;;;;;;;28.63;23.67;;;9.40;99.90;;;;;;4912995;29;20503;-82
2020/12/17 04:02:22;;;;;;;28.77;22.52;;;9.40;99.90;;;;;;4882776;29;20036;-80
2020/12/17 04:04:48;;;;;;;33.33;25.02;;;9.30;99.90;;;;;;4898911;29;20402;-81
2020/12/17 04:07:15;;;;;;;28.40;23.65;;;9.30;99.90;;;;;;4898722;29;20047;-82
2020/12/17 04:09:41;;;;;;;35.53;27.23;;;9.20;99.90;;;;;;4867077;29;20393;-81
2020/12/17 04:12:07;;;;;;;32.95;24.70;;;9.30;99.90;;;;;;4910505;29;20024;-81
2020/12/17 04:14:33;;;;;;;31.58;24.58;;;9.30;99.90;;;;;;4898037;29;20448;-82
2020/12/17 04:16:59;;;;;;;32.00;24.50;;;9.40;99.90;;;;;;4885044;29;20044;-82
2020/12/17 04:19:25;;;;;;;30.27;22.65;;;9.40;99.90;;;;;;4918214;29;20028;-83
2020/12/17 04:21:51;;;;;;;38.67;24.90;;;9.40;99.90;;;;;;4899050;29;20028;-81
2020/12/17 04:24:17;;;;;;;38.50;26.73;;;9.30;99.90;;;;;;4917887;29;20172;-81
2020/12/17 04:26:52;;;;;;;40.13;28.58;;;9.40;99.90;;;;;;4897991;29;20515;-81
2020/12/17 04:29:18;;;;;;;43.28;29.35;;;9.30;99.90;;;;;;4897661;29;20040;-82
2020/12/17 04:31:45;;;;;;;36.60;26.77;;;9.30;99.90;;;;;;4898178;29;20037;-82
2020/12/17 04:34:11;;;;;;;33.05;25.88;;;9.30;99.90;;;;;;4918151;29;20478;-81
2020/12/17 04:36:37;;;;;;;48.42;31.35;;;9.30;99.90;;;;;;4917756;29;20057;-82
2020/12/17 04:39:04;;;;;;;44.15;29.50;;;9.20;99.90;;;;;;4900597;29;20244;-81
2020/12/17 04:41:36;;;;;;;41.13;25.73;;;9.20;99.90;;;;;;4897450;29;20032;-83
2020/12/17 04:44:02;;;;;;;43.35;28.80;;;9.30;99.90;;;;;;4900769;29;20036;-82
2020/12/17 04:46:30;;;;;;;45.67;30.48;;;9.20;99.90;;;;;;4917858;29;20394;-81
2020/12/17 04:49:00;;;;;;;42.63;27.92;;;9.20;99.90;;;;;;4917561;29;20033;-81
2020/12/17 04:51:29;;;;;;;39.72;28.42;;;9.20;99.90;;;;;;4917893;29;20036;-82
2020/12/17 04:54:04;;;;;;;46.22;29.63;;;9.40;99.90;;;;;;4899183;29;20156;-82
2020/12/17 04:56:38;;;;;;;36.65;25.38;;;9.30;99.90;;;;;;4917727;29;20024;-81
2020/12/17 04:59:04;;;;;;;36.60;25.93;;;9.30;99.90;;;;;;4917387;29;20055;-79
2020/12/17 05:01:32;;;;;;;36.83;26.48;;;9.40;99.90;;;;;;4887124;29;20771;-82
2020/12/17 05:03:58;;;;;;;48.88;32.03;;;9.30;99.90;;;;;;4897893;29;20135;-82
2020/12/17 05:06:25;;;;;;;39.60;28.67;;;9.30;99.90;;;;;;4891791;29;20141;-81
2020/12/17 05:08:52;;;;;;;43.47;29.17;;;9.40;99.90;;;;;;4881636;29;20404;-81
2020/12/17 05:11:18;;;;;;;44.53;31.08;;;9.30;99.90;;;;;;4898228;29;20036;-82
2020/12/17 05:13:44;;;;;;;41.08;29.05;;;9.30;99.90;;;;;;4894191;29;20107;-82
2020/12/17 05:16:10;;;;;;;56.55;36.33;;;9.40;99.90;;;;;;4874787;29;20116;-81
2020/12/17 05:18:37;;;;;;;45.20;31.38;;;9.40;99.90;;;;;;4881428;29;20033;-81
2020/12/17 05:21:04;;;;;;;40.25;28.38;;;9.40;99.90;;;;;;4881348;29;20032;-82
2020/12/17 05:23:30;;;;;;;39.88;29.70;;;9.50;99.90;;;;;;4892261;29;20040;-83
2020/12/17 05:25:56;;;;;;;47.90;32.13;;;9.40;99.90;;;;;;4897005;29;20037;-81
2020/12/17 05:28:22;;;;;;;49.88;32.92;;;9.40;99.90;;;;;;4875729;29;20124;-82
2020/12/17 05:30:48;;;;;;;57.78;36.30;;;9.40;99.90;;;;;;4896771;29;20055;-82
2020/12/17 05:33:14;;;;;;;47.42;33.45;;;9.30;99.90;;;;;;4890418;29;20381;-83
2020/12/17 05:35:41;;;;;;;58.15;39.63;;;9.30;99.90;;;;;;4896974;29;20124;-84
2020/12/17 05:38:11;;;;;;;50.10;35.05;;;9.30;99.90;;;;;;4897205;29;20123;-82
2020/12/17 05:40:41;;;;;;;55.55;37.70;;;9.30;99.90;;;;;;4896800;29;20431;-83
2020/12/17 05:43:07;;;;;;;57.03;37.83;;;9.20;99.90;;;;;;4881350;29;20475;-83
2020/12/17 05:45:34;;;;;;;47.78;33.92;;;9.30;99.90;;;;;;4897204;29;20032;-82
2020/12/17 05:48:12;;;;;;;49.47;33.28;;;9.20;99.90;;;;;;4898307;29;20037;-83
2020/12/17 05:50:58;;;;;;;46.03;30.70;;;9.20;99.90;;;;;;4898399;29;20104;-82
2020/12/17 05:53:29;;;;;;;51.42;35.67;;;9.30;99.90;;;;;;4898204;29;20112;-82
2020/12/17 05:56:03;;;;;;;46.42;32.33;;;9.20;99.90;;;;;;4898522;29;20025;-83
2020/12/17 05:58:36;;;;;;;42.90;30.97;;;9.20;99.90;;;;;;4878746;29;20115;-82
2020/12/17 06:01:17;;;;;;;57.97;36.20;;;9.20;99.90;;;;;;4900661;29;20351;-82
2020/12/17 06:03:43;;;;;;;44.80;31.33;;;9.20;99.90;;;;;;4916789;29;20036;-82
2020/12/17 06:06:10;;;;;;;43.03;30.25;;;9.20;99.90;;;;;;4881589;29;20065;-82
2020/12/17 06:08:38;;;;;;;36.83;27.25;;;9.20;99.90;;;;;;4896595;29;20092;-83
2020/12/17 06:11:07;;;;;;;41.05;28.90;;;9.20;99.90;;;;;;4920168;29;20047;-83
2020/12/17 06:13:36;;;;;;;36.33;26.25;;;9.10;99.90;;;;;;4920255;29;20028;-83
2020/12/17 06:16:04;;;;;;;38.33;26.88;;;9.10;99.90;;;;;;4902843;29;20036;-83
2020/12/17 06:18:55;;;;;;;37.78;26.60;;;9.10;99.90;;;;;;4900234;29;20123;-83
2020/12/17 06:21:24;;;;;;;39.60;28.08;;;9.10;99.90;;;;;;4911849;29;20498;-83
2020/12/17 06:23:58;;;;;;;32.85;22.92;;;9.20;99.90;;;;;;4901073;29;20072;-83
2020/12/17 06:26:24;;;;;;;41.28;28.80;;;9.00;99.90;;;;;;4901031;29;20029;-82
2020/12/17 06:28:52;;;;;;;35.70;27.48;;;9.10;99.90;;;;;;4885395;29;20037;-83
2020/12/17 06:31:18;;;;;;;35.22;25.65;;;9.00;99.90;;;;;;4900033;29;20368;-82
2020/12/17 06:33:45;;;;;;;33.38;24.55;;;9.00;99.90;;;;;;4919417;29;20032;-82
2020/12/17 06:36:27;;;;;;;33.45;25.00;;;9.00;99.90;;;;;;4901264;29;20091;-82
2020/12/17 06:38:53;;;;;;;32.58;24.63;;;9.00;99.90;;;;;;4901208;29;20036;-82
2020/12/17 06:41:22;;;;;;;31.08;24.48;;;9.00;99.90;;;;;;4884143;29;20127;-82
2020/12/17 06:43:48;;;;;;;33.25;25.80;;;9.00;99.90;;;;;;4900227;29;20040;-82
2020/12/17 06:46:29;;;;;;;29.90;23.70;;;9.00;99.90;;;;;;4899923;29;20036;-82
2020/12/17 06:48:55;;;;;;;33.55;23.52;;;9.00;99.90;;;;;;4917887;29;20028;-81
2020/12/17 06:51:30;;;;;;;25.35;20.35;;;9.00;99.90;;;;;;4919740;29;20047;-82
2020/12/17 06:53:55;;;;;;;23.27;18.60;;;9.00;99.90;;;;;;4919489;29;20032;-82
2020/12/17 06:56:21;;;;;;;23.52;17.05;;;9.00;99.90;;;;;;4899446;29;20115;-81
2020/12/17 06:58:47;;;;;;;23.38;17.13;;;9.00;99.90;;;;;;4883181;29;20109;-82
2020/12/17 07:01:28;;;;;;;22.10;17.35;;;9.00;99.90;;;;;;4902613;29;20087;-81
2020/12/17 07:03:54;;;;;;;22.83;17.08;;;8.90;99.90;;;;;;4903160;29;20467;-82
2020/12/17 07:06:25;;;;;;;20.55;15.43;;;8.90;99.90;;;;;;4887494;29;20028;-81
2020/12/17 07:08:56;;;;;;;22.05;16.45;;;8.90;99.90;;;;;;4902539;29;20028;-81
2020/12/17 07:11:42;;;;;;;17.77;13.68;;;8.90;99.90;;;;;;4919587;29;20104;-82
2020/12/17 07:14:26;;;;;;;14.95;12.10;;;8.80;99.90;;;;;;4920305;29;20039;-83
2020/12/17 07:17:03;;;;;;;15.27;11.43;;;8.80;99.90;;;;;;4919490;29;20502;-84
2020/12/17 07:19:30;;;;;;;16.52;11.68;;;8.80;99.90;;;;;;4919882;29;20020;-84
2020/12/17 07:22:05;;;;;;;13.23;9.88;;;8.80;99.90;;;;;;4919042;29;20028;-83
2020/12/17 07:24:34;;;;;;;11.60;8.70;;;8.70;99.90;;;;;;4919472;29;20471;-83
2020/12/17 07:27:12;;;;;;;11.68;8.27;;;8.80;99.90;;;;;;4902240;29;20052;-82
2020/12/17 07:29:42;;;;;;;9.35;7.00;;;8.80;99.90;;;;;;4927651;29;20028;-85
2020/12/17 07:32:26;;;;;;;5.10;4.53;;;8.70;99.90;;;;;;4921843;29;20080;-85
2020/12/17 07:34:54;;;;;;;5.25;4.30;;;8.80;99.90;;;;;;4905137;29;20487;-83
2020/12/17 07:37:42;;;;;;;8.02;4.60;;;8.80;99.90;;;;;;4918322;29;20028;-84
2020/12/17 07:40:15;;;;;;;5.15;3.88;;;8.80;99.90;;;;;;4906977;29;20032;-84
2020/12/17 07:42:41;;;;;;;4.40;3.33;;;8.80;99.90;;;;;;4904304;29;20038;-88
2020/12/17 07:45:08;;;;;;;7.28;3.83;;;8.80;99.90;;;;;;4908861;29;20364;-83
2020/12/17 07:47:34;;;;;;;3.97;3.47;;;8.80;99.90;;;;;;4904254;29;20064;-83
2020/12/17 07:50:00;;;;;;;5.55;3.70;;;8.80;99.90;;;;;;4895737;29;20032;-92
2020/12/17 07:52:35;;;;;;;5.10;3.35;;;8.80;99.90;;;;;;4937107;29;20076;-84
2020/12/17 07:55:02;;;;;;;5.38;4.00;;;8.70;99.90;;;;;;4939581;29;20432;-84
2020/12/17 07:57:28;;;;;;;6.53;4.75;;;8.80;99.90;;;;;;4923598;29;20040;-86
2020/12/17 07:59:54;;;;;;;6.35;4.95;;;8.70;99.90;;;;;;4903997;29;20053;-84
2020/12/17 08:02:20;;;;;;;8.52;7.25;;;8.60;99.90;;;;;;4919043;29;20033;-84
2020/12/17 08:04:53;;;;;;;10.38;7.20;;;8.60;99.90;;;;;;4922300;29;20032;-94
2020/12/17 08:07:20;;;;;;;12.82;9.25;;;8.70;99.90;;;;;;4942192;29;20025;-83
2020/12/17 08:09:59;;;;;;;13.20;11.27;;;8.70;99.90;;;;;;4941983;29;20016;-89
2020/12/17 08:12:25;;;;;;;15.50;11.27;;;8.70;99.90;;;;;;4922033;29;20023;-83
2020/12/17 08:14:50;;;;;;;15.80;14.02;;;8.70;99.90;;;;;;4934987;29;20047;-84
2020/12/17 08:17:19;;;;;;;18.08;14.10;;;8.60;99.90;;;;;;4919000;29;20023;-85
2020/12/17 08:19:56;;;;;;;20.52;15.07;;;8.70;99.90;;;;;;4922602;29;20063;-91
2020/12/17 08:22:28;;;;;;;21.98;17.25;;;8.70;99.90;;;;;;4922357;29;20060;-83
2020/12/17 08:24:54;;;;;;;21.13;17.05;;;8.80;99.90;;;;;;4923470;29;20038;-85
2020/12/17 08:27:22;;;;;;;23.10;16.92;;;8.90;99.90;;;;;;4916868;29;20084;-84
2020/12/17 08:29:47;;;;;;;25.60;20.52;;;8.90;99.90;;;;;;4920015;29;20041;-85
2020/12/17 08:32:13;;;;;;;23.92;20.42;;;8.90;99.90;;;;;;4920566;29;20048;-93
2020/12/17 08:34:54;;;;;;;31.33;24.02;;;8.90;99.90;;;;;;4921687;29;20028;-82
2020/12/17 08:37:21;;;;;;;32.42;23.92;;;8.90;99.90;;;;;;4924722;29;20020;-85
2020/12/17 08:39:59;;;;;;;32.53;24.60;;;8.90;99.90;;;;;;4908660;29;20032;-88
2020/12/17 08:42:30;;;;;;;35.17;26.10;;;8.90;99.90;;;;;;4919564;29;20033;-84
2020/12/17 08:45:07;;;;;;;32.85;26.50;;;8.90;99.90;;;;;;4916705;29;20108;-84
2020/12/17 08:47:36;;;;;;;36.72;27.52;;;9.00;99.90;;;;;;4911300;29;20060;-83
2020/12/17 08:50:05;;;;;;;37.33;28.38;;;9.00;99.90;;;;;;4922933;29;20032;-85
2020/12/17 08:52:32;;;;;;;40.13;28.85;;;9.00;99.90;;;;;;4898476;29;20071;-83
2020/12/17 08:55:09;;;;;;;31.88;26.73;;;9.10;99.90;;;;;;4900043;29;20059;-82
2020/12/17 08:57:36;;;;;;;34.35;27.95;;;9.20;99.90;;;;;;4882374;29;20032;-83
2020/12/17 09:00:05;;;;;;;35.03;26.67;;;9.20;99.90;;;;;;4881115;29;20135;-84
2020/12/17 09:02:31;;;;;;;34.33;27.25;;;9.20;99.90;;;;;;4898550;29;20028;-82
2020/12/17 09:05:01;;;;;;;38.72;25.17;;;9.30;99.90;;;;;;4880912;29;20157;-82
2020/12/17 09:07:31;;;;;;;35.08;25.02;;;9.30;99.90;;;;;;4899152;29;20059;-83
2020/12/17 09:10:16;;;;;;;30.55;23.17;;;9.30;99.90;;;;;;4898241;29;20028;-84
2020/12/17 09:12:43;;;;;;;34.15;22.95;;;9.30;99.90;;;;;;4894650;29;20043;-82
2020/12/17 09:15:13;;;;;;;29.25;21.50;;;9.30;99.90;;;;;;4905099;29;20500;-82
2020/12/17 09:17:39;;;;;;;28.80;21.27;;;9.40;99.90;;;;;;4899674;29;20032;-82
2020/12/17 09:20:19;;;;;;;30.95;20.02;;;9.40;99.90;;;;;;4899699;29;20079;-82
2020/12/17 09:22:46;;;;;;;27.67;19.17;;;9.40;99.90;;;;;;4900398;29;20032;-86
2020/12/17 09:25:15;;;;;;;31.70;17.55;;;9.40;99.90;;;;;;4875262;29;20127;-82
2020/12/17 09:27:45;;;;;;;25.35;17.23;;;9.40;99.90;;;;;;4898272;29;20032;-82
2020/12/17 09:30:15;;;;;;;30.08;17.67;;;9.50;99.90;;;;;;4882658;29;20048;-82
2020/12/17 09:32:53;;;;;;;30.55;16.42;;;9.50;99.90;;;;;;4897981;29;20035;-82
2020/12/17 09:35:20;;;;;;;29.60;16.50;;;9.50;99.90;;;;;;4898702;29;20025;-82
2020/12/17 09:38:00;;;;;;;24.75;14.43;;;9.60;99.90;;;;;;4878721;29;20131;-82
2020/12/17 09:40:26;;;;;;;25.25;13.95;;;9.60;99.90;;;;;;4891739;29;20025;-83
2020/12/17 09:43:22;;;;;;;22.27;12.85;;;9.60;99.90;;;;;;4897376;29;20037;-84
2020/12/17 09:45:49;;;;;;;19.20;11.52;;;9.60;99.90;;;;;;4886745;29;20037;-83
2020/12/17 09:48:19;;;;;;;26.42;10.43;;;9.70;99.90;;;;;;4894117;29;20041;-81
2020/12/17 09:51:06;;;;;;;25.60;10.75;;;9.70;99.90;;;;;;4901236;29;20483;-82
2020/12/17 09:53:34;;;;;;;21.15;9.93;;;9.70;99.90;;;;;;4897785;29;20032;-82
2020/12/17 09:56:00;;;;;;;24.90;9.20;;;9.80;99.90;;;;;;4902400;29;20047;-82
2020/12/17 09:58:26;;;;;;;20.10;9.52;;;9.80;99.90;;;;;;4897581;29;20037;-82
2020/12/17 10:00:52;;;;;;;29.08;10.00;;;9.80;99.90;;;;;;4888510;29;20040;-82
2020/12/17 10:03:17;;;;;;;20.92;7.28;;;9.70;99.90;;;;;;4885277;29;20482;-83
2020/12/17 10:05:43;;;;;;;17.02;6.65;;;9.80;99.90;;;;;;4901283;29;20040;-83
2020/12/17 10:08:09;;;;;;;21.52;6.57;;;9.80;99.90;;;;;;4901274;29;20089;-83
2020/12/17 10:10:35;;;;;;;20.70;6.75;;;9.80;99.90;;;;;;4900601;29;20029;-82
2020/12/17 10:13:03;;;;;;;19.20;5.70;;;9.90;99.90;;;;;;4896356;29;20067;-82
2020/12/17 10:15:29;;;;;;;16.60;5.20;;;9.90;99.90;;;;;;4921469;29;20037;-83
2020/12/17 10:17:55;;;;;;;32.58;6.85;;;9.90;99.90;;;;;;4901727;29;20036;-91
2020/12/17 10:20:22;;;;;;;22.67;5.55;;;10.00;99.90;;;;;;4884713;29;20487;-83
2020/12/17 10:22:48;;;;;;;23.45;6.15;;;9.90;99.90;;;;;;4900853;29;20063;-82
2020/12/17 10:25:15;;;;;;;18.73;5.35;;;9.90;99.90;;;;;;4899931;29;20068;-82
2020/12/17 10:27:41;;;;;;;22.50;6.07;;;10.00;99.90;;;;;;4899830;29;20029;-85
2020/12/17 10:30:07;;;;;;;20.13;5.95;;;10.00;99.90;;;;;;4903403;29;20083;-84
2020/12/17 10:32:33;;;;;;;22.65;5.95;;;10.00;99.90;;;;;;4920491;29;20024;-84
2020/12/17 10:34:59;;;;;;;22.08;5.50;;;10.10;99.90;;;;;;4886453;29;20040;-83
2020/12/17 10:37:26;;;;;;;25.50;5.85;;;10.10;99.90;;;;;;4884439;29;20033;-84
2020/12/17 10:39:52;;;;;;;18.13;5.50;;;10.00;99.90;;;;;;4917566;29;20064;-83
2020/12/17 10:42:17;;;;;;;27.88;6.40;;;10.00;99.90;;;;;;4899298;29;20110;-84
2020/12/17 10:44:43;;;;;;;27.25;6.80;;;10.00;99.90;;;;;;4900106;29;20144;-84
2020/12/17 10:47:08;;;;;;;22.88;5.82;;;10.10;99.90;;;;;;4884246;29;20592;-83
2020/12/17 10:49:35;;;;;;;23.38;5.93;;;10.10;99.90;;;;;;4884277;29;20035;-84
2020/12/17 10:52:02;;;;;;;25.05;5.60;;;10.10;99.90;;;;;;4886599;29;20028;-84
2020/12/17 10:54:28;;;;;;;18.98;5.35;;;10.20;99.90;;;;;;4898441;29;20088;-84
2020/12/17 10:56:54;;;;;;;25.05;5.60;;;10.10;99.90;;;;;;4917471;29;20099;-84
2020/12/17 10:59:19;;;;;;;23.02;5.35;;;10.10;99.90;;;;;;4883738;29;20151;-86
2020/12/17 11:01:45;;;;;;;24.48;6.10;;;10.10;99.90;;;;;;4900091;29;20140;-85
2020/12/17 11:04:11;;;;;;;28.20;6.53;;;10.10;99.90;;;;;;4899441;29;20498;-82
2020/12/17 11:06:36;;;;;;;23.10;5.85;;;10.20;99.90;;;;;;4900045;29;20035;-83
2020/12/17 11:09:03;;;;;;;23.35;6.47;;;10.10;99.90;;;;;;4871033;29;20036;-83
2020/12/17 11:11:29;;;;;;;28.33;6.45;;;10.10;99.90;;;;;;4899300;29;20028;-83
2020/12/17 11:13:54;;;;;;;26.15;6.38;;;10.20;99.90;;;;;;4885318;29;20044;-84
2020/12/17 11:16:20;;;;;;;26.80;7.28;;;10.20;99.90;;;;;;4883619;29;20033;-83
2020/12/17 11:18:46;;;;;;;36.67;9.05;;;10.20;99.90;;;;;;4916628;29;20487;-84
2020/12/17 11:21:18;;;;;;;35.40;7.05;;;10.20;99.90;;;;;;4883571;29;20529;-83
2020/12/17 11:23:44;;;;;;;22.90;6.25;;;10.20;99.90;;;;;;4916084;29;20066;-83
2020/12/17 11:26:09;;;;;;;25.23;6.63;;;10.30;99.90;;;;;;4867771;29;20468;-84
2020/12/17 11:28:35;;;;;;;31.13;7.85;;;10.30;99.90;;;;;;4899184;29;20029;-83
2020/12/17 11:31:00;;;;;;;31.98;8.05;;;10.30;99.90;;;;;;4886073;29;20042;-84
2020/12/17 11:33:27;;;;;;;28.05;7.28;;;10.30;99.90;;;;;;4919131;29;20039;-83
2020/12/17 11:35:53;;;;;;;28.20;7.72;;;10.40;99.90;;;;;;4919461;29;20479;-84
2020/12/17 11:38:19;;;;;;;24.70;6.75;;;10.30;99.90;;;;;;4883927;29;20104;-83
2020/12/17 11:40:45;;;;;;;28.33;8.82;;;10.40;99.90;;;;;;4899698;29;20033;-83
2020/12/17 11:43:10;;;;;;;25.83;8.48;;;10.40;99.90;;;;;;4883045;29;20051;-84
2020/12/17 11:45:36;;;;;;;28.55;8.30;;;10.30;99.90;;;;;;4883564;29;20435;-83
2020/12/17 11:48:03;;;;;;;31.73;9.63;;;10.20;99.90;;;;;;4901253;29;20036;-83
2020/12/17 11:50:28;;;;;;;28.83;9.60;;;10.20;99.90;;;;;;4883289;29;20028;-85
2020/12/17 11:52:55;;;;;;;29.13;9.18;;;10.10;99.90;;;;;;4884871;29;20065;-84
2020/12/17 11:55:20;;;;;;;25.50;7.43;;;10.10;99.90;;;;;;4882863;29;20472;-83
2020/12/17 11:57:49;;;;;;;27.77;8.23;;;10.10;99.90;;;;;;4883447;29;20088;-84
2020/12/17 12:00:17;;;;;;;26.52;8.07;;;10.20;99.90;;;;;;4897660;29;20048;-85
2020/12/17 12:02:42;;;;;;;25.33;7.20;;;10.20;99.90;;;;;;4898927;29;20033;-85
2020/12/17 12:05:09;;;;;;;28.45;7.65;;;10.20;99.90;;;;;;4901621;29;20051;-84
2020/12/17 12:07:35;;;;;;;21.65;6.85;;;10.20;99.90;;;;;;4932890;29;20039;-85
2020/12/17 12:10:03;;;;;;;22.45;7.00;;;10.20;99.90;;;;;;4919950;29;20398;-83
2020/12/17 12:12:29;;;;;;;30.23;7.18;;;10.40;99.90;;;;;;4901934;29;20043;-84
2020/12/17 12:14:55;;;;;;;25.15;6.85;;;10.30;99.90;;;;;;4903291;29;20118;-85
2020/12/17 12:17:20;;;;;;;23.85;6.72;;;10.30;99.90;;;;;;4917136;29;20168;-85
2020/12/17 12:19:47;;;;;;;22.83;6.10;;;10.30;99.90;;;;;;4886461;29;20394;-84
2020/12/17 12:22:13;;;;;;;28.20;8.32;;;10.30;99.90;;;;;;4917128;29;20088;-86
2020/12/17 12:24:39;;;;;;;22.52;6.45;;;10.20;99.90;;;;;;4931784;29;20392;-86
2020/12/17 12:27:05;;;;;;;29.25;7.15;;;10.20;99.90;;;;;;4882572;29;20033;-84
2020/12/17 12:29:31;;;;;;;28.02;7.65;;;10.30;99.90;;;;;;4879547;29;20036;-82
2020/12/17 12:31:59;;;;;;;24.98;6.38;;;10.30;99.90;;;;;;4881146;29;20029;-85
2020/12/17 12:34:25;;;;;;;26.83;6.95;;;10.30;99.90;;;;;;4879254;29;20483;-84
2020/12/17 12:36:53;;;;;;;25.05;6.80;;;10.30;99.90;;;;;;4880323;29;20102;-84
2020/12/17 12:39:19;;;;;;;25.00;6.82;;;10.20;99.90;;;;;;4886684;29;20036;-85
2020/12/17 12:41:46;;;;;;;24.92;6.22;;;10.20;99.90;;;;;;4888300;29;20039;-84